sensor_id;sensor_type;location;lat;lon;timestamp;pressure;altitude;pressure_sealevel;temperature;humidity
69306;BME280;56427;51.580;4.656;2022-08-21T00:00:17;101716.19;;;13.78;100.00
69306;BME280;56427;51.580;4.656;2022-08-21T00:02:53;101716.19;;;13.78;100.00
69306;BME280;56427;51.580;4.656;2022-08-21T00:05:19;101709.19;;;13.57;100.00
69306;BME280;56427;51.580;4.656;2022-08-21T00:07:45;101705.81;;;13.67;100.00
69306;BME280;56427;51.580;4.656;2022-08-21T00:10:12;101707.03;;;13.62;100.00
69306;BME280;56427;51.580;4.656;2022-08-21T00:12:38;101712.13;;;13.64;100.00
69306;BME280;56427;51.580;4.656;2022-08-21T00:15:06;101713.53;;;13.68;100.00
69306;BME280;56427;51.580;4.656;2022-08-21T00:17:32;101712.06;;;13.75;100.00
69306;BME280;56427;51.580;4.656;2022-08-21T00:19:58;101710.09;;;13.89;100.00
69306;BME280;56427;51.580;4.656;2022-08-21T00:22:23;101701.53;;;14.08;100.00
69306;BME280;56427;51.580;4.656;2022-08-21T00:24:49;101704.16;;;14.08;100.00
69306;BME280;56427;51.580;4.656;2022-08-21T00:27:14;101696.41;;;14.27;100.00
69306;BME280;56427;51.580;4.656;2022-08-21T00:29:40;101695.09;;;14.33;100.00
69306;BME280;56427;51.580;4.656;2022-08-21T00:32:05;101691.00;;;14.50;100.00
69306;BME280;56427;51.580;4.656;2022-08-21T00:34:30;101688.13;;;14.53;100.00
69306;BME280;56427;51.580;4.656;2022-08-21T00:36:56;101698.72;;;14.51;100.00
69306;BME280;56427;51.580;4.656;2022-08-21T00:39:21;101692.53;;;14.52;100.00
69306;BME280;56427;51.580;4.656;2022-08-21T00:41:46;101692.53;;;14.52;100.00
69306;BME280;56427;51.580;4.656;2022-08-21T00:44:13;101696.78;;;14.53;100.00
69306;BME280;56427;51.580;4.656;2022-08-21T00:46:39;101692.00;;;14.59;100.00
69306;BME280;56427;51.580;4.656;2022-08-21T00:49:06;101688.47;;;14.60;100.00
69306;BME280;56427;51.580;4.656;2022-08-21T00:51:39;101687.66;;;14.59;100.00
69306;BME280;56427;51.580;4.656;2022-08-21T00:54:07;101684.72;;;14.52;100.00
69306;BME280;56427;51.580;4.656;2022-08-21T00:56:34;101689.34;;;14.49;100.00
69306;BME280;56427;51.580;4.656;2022-08-21T00:59:01;101688.13;;;14.53;100.00
69306;BME280;56427;51.580;4.656;2022-08-21T01:01:27;101679.69;;;14.61;100.00
69306;BME280;56427;51.580;4.656;2022-08-21T01:03:52;101686.91;;;14.57;100.00
69306;BME280;56427;51.580;4.656;2022-08-21T01:06:18;101693.75;;;14.48;100.00
69306;BME280;56427;51.580;4.656;2022-08-21T01:08:43;101690.19;;;14.49;100.00
69306;BME280;56427;51.580;4.656;2022-08-21T01:11:09;101687.31;;;14.52;100.00
69306;BME280;56427;51.580;4.656;2022-08-21T01:13:36;101685.09;;;14.48;100.00
69306;BME280;56427;51.580;4.656;2022-08-21T01:16:04;101688.53;;;14.48;100.00
69306;BME280;56427;51.580;4.656;2022-08-21T01:18:30;101686.44;;;14.42;100.00
69306;BME280;56427;51.580;4.656;2022-08-21T01:23:28;101692.13;;;14.47;100.00
69306;BME280;56427;51.580;4.656;2022-08-21T01:25:54;101685.47;;;14.33;100.00
69306;BME280;56427;51.580;4.656;2022-08-21T01:28:21;101692.91;;;14.38;100.00
69306;BME280;56427;51.580;4.656;2022-08-21T01:30:46;101684.91;;;14.30;100.00
69306;BME280;56427;51.580;4.656;2022-08-21T01:33:13;101683.63;;;14.24;100.00
69306;BME280;56427;51.580;4.656;2022-08-21T01:35:39;101681.72;;;14.26;100.00
69306;BME280;56427;51.580;4.656;2022-08-21T01:38:04;101685.28;;;14.25;100.00
69306;BME280;56427;51.580;4.656;2022-08-21T01:40:29;101681.00;;;14.14;100.00
69306;BME280;56427;51.580;4.656;2022-08-21T01:42:54;101689.78;;;14.13;100.00
69306;BME280;56427;51.580;4.656;2022-08-21T01:45:20;101678.03;;;14.08;100.00
69306;BME280;56427;51.580;4.656;2022-08-21T01:47:46;101681.50;;;14.08;100.00
69306;BME280;56427;51.580;4.656;2022-08-21T01:50:15;101676.94;;;14.01;100.00
69306;BME280;56427;51.580;4.656;2022-08-21T01:52:41;101675.00;;;14.03;100.00
69306;BME280;56427;51.580;4.656;2022-08-21T01:55:09;101678.22;;;14.06;100.00
69306;BME280;56427;51.580;4.656;2022-08-21T01:57:35;101671.69;;;14.01;100.00
69306;BME280;56427;51.580;4.656;2022-08-21T02:00:00;101674.81;;;13.94;100.00
69306;BME280;56427;51.580;4.656;2022-08-21T02:02:26;101663.69;;;13.92;100.00
69306;BME280;56427;51.580;4.656;2022-08-21T02:04:51;101666.63;;;13.99;100.00
69306;BME280;56427;51.580;4.656;2022-08-21T02:07:17;101662.75;;;13.93;100.00
69306;BME280;56427;51.580;4.656;2022-08-21T02:09:43;101660.91;;;13.84;100.00
69306;BME280;56427;51.580;4.656;2022-08-21T02:12:10;101658.97;;;13.86;100.00
69306;BME280;56427;51.580;4.656;2022-08-21T02:14:36;101664.06;;;13.88;100.00
69306;BME280;56427;51.580;4.656;2022-08-21T02:17:01;101656.63;;;13.83;100.00
69306;BME280;56427;51.580;4.656;2022-08-21T02:19:27;101660.59;;;13.56;100.00
69306;BME280;56427;51.580;4.656;2022-08-21T02:21:52;101655.31;;;13.68;100.00
69306;BME280;56427;51.580;4.656;2022-08-21T02:24:17;101660.03;;;13.53;100.00
69306;BME280;56427;51.580;4.656;2022-08-21T02:26:43;101649.28;;;13.02;100.00
69306;BME280;56427;51.580;4.656;2022-08-21T02:29:08;101658.41;;;13.08;100.00
69306;BME280;56427;51.580;4.656;2022-08-21T02:31:33;101663.59;;;13.19;100.00
69306;BME280;56427;51.580;4.656;2022-08-21T02:33:59;101656.75;;;13.07;100.00
69306;BME280;56427;51.580;4.656;2022-08-21T02:36:24;101659.44;;;13.17;100.00
69306;BME280;56427;51.580;4.656;2022-08-21T02:38:50;101659.56;;;13.15;100.00
69306;BME280;56427;51.580;4.656;2022-08-21T02:41:19;101657.31;;;13.11;100.00
69306;BME280;56427;51.580;4.656;2022-08-21T02:43:46;101656.63;;;13.08;100.00
69306;BME280;56427;51.580;4.656;2022-08-21T02:46:14;101659.84;;;13.01;100.00
69306;BME280;56427;51.580;4.656;2022-08-21T02:48:40;101652.16;;;13.32;100.00
69306;BME280;56427;51.580;4.656;2022-08-21T02:51:17;101661.06;;;13.29;100.00
69306;BME280;56427;51.580;4.656;2022-08-21T02:53:43;101662.25;;;13.36;100.00
69306;BME280;56427;51.580;4.656;2022-08-21T02:56:12;101658.81;;;13.24;100.00
69306;BME280;56427;51.580;4.656;2022-08-21T02:58:42;101670.31;;;13.33;100.00
69306;BME280;56427;51.580;4.656;2022-08-21T03:01:08;101663.19;;;13.35;100.00
69306;BME280;56427;51.580;4.656;2022-08-21T03:03:36;101659.81;;;13.44;100.00
69306;BME280;56427;51.580;4.656;2022-08-21T03:06:03;101658.56;;;13.39;100.00
69306;BME280;56427;51.580;4.656;2022-08-21T03:08:28;101658.31;;;12.98;100.00
69306;BME280;56427;51.580;4.656;2022-08-21T03:10:54;101655.25;;;12.93;100.00
69306;BME280;56427;51.580;4.656;2022-08-21T03:13:20;101654.78;;;12.99;100.00
69306;BME280;56427;51.580;4.656;2022-08-21T03:15:49;101660.22;;;12.96;100.00
69306;BME280;56427;51.580;4.656;2022-08-21T03:18:15;101655.84;;;12.97;100.00
69306;BME280;56427;51.580;4.656;2022-08-21T03:20:41;101644.41;;;12.77;100.00
69306;BME280;56427;51.580;4.656;2022-08-21T03:23:08;101643.31;;;12.79;100.00
69306;BME280;56427;51.580;4.656;2022-08-21T03:25:35;101645.00;;;12.69;100.00
69306;BME280;56427;51.580;4.656;2022-08-21T03:28:03;101646.81;;;12.68;100.00
69306;BME280;56427;51.580;4.656;2022-08-21T03:30:28;101643.78;;;12.84;100.00
69306;BME280;56427;51.580;4.656;2022-08-21T03:32:56;101631.19;;;12.68;100.00
69306;BME280;56427;51.580;4.656;2022-08-21T03:35:22;101624.41;;;12.66;100.00
69306;BME280;56427;51.580;4.656;2022-08-21T03:37:47;101624.41;;;12.66;100.00
69306;BME280;56427;51.580;4.656;2022-08-21T03:40:15;101626.09;;;12.67;100.00
69306;BME280;56427;51.580;4.656;2022-08-21T03:42:41;101624.03;;;12.82;100.00
69306;BME280;56427;51.580;4.656;2022-08-21T03:45:07;101625.94;;;12.80;100.00
69306;BME280;56427;51.580;4.656;2022-08-21T03:47:33;101623.94;;;12.72;100.00
69306;BME280;56427;51.580;4.656;2022-08-21T03:49:58;101624.75;;;12.73;100.00
69306;BME280;56427;51.580;4.656;2022-08-21T03:52:24;101619.28;;;12.87;100.00
69306;BME280;56427;51.580;4.656;2022-08-21T03:54:49;101623.75;;;12.96;100.00
69306;BME280;56427;51.580;4.656;2022-08-21T03:57:16;101623.34;;;13.01;100.00
69306;BME280;56427;51.580;4.656;2022-08-21T03:59:42;101630.13;;;13.03;100.00
69306;BME280;56427;51.580;4.656;2022-08-21T04:02:09;101624.09;;;13.03;100.00
69306;BME280;56427;51.580;4.656;2022-08-21T04:04:36;101629.38;;;13.13;100.00
69306;BME280;56427;51.580;4.656;2022-08-21T04:07:02;101632.69;;;13.15;100.00
69306;BME280;56427;51.580;4.656;2022-08-21T04:09:28;101634.34;;;13.16;100.00
69306;BME280;56427;51.580;4.656;2022-08-21T04:11:53;101632.69;;;13.15;100.00
69306;BME280;56427;51.580;4.656;2022-08-21T04:14:19;101635.41;;;13.13;100.00
69306;BME280;56427;51.580;4.656;2022-08-21T04:16:45;101633.28;;;13.07;100.00
69306;BME280;56427;51.580;4.656;2022-08-21T04:19:12;101642.22;;;13.04;100.00
69306;BME280;56427;51.580;4.656;2022-08-21T04:21:41;101639.38;;;12.96;100.00
69306;BME280;56427;51.580;4.656;2022-08-21T04:24:08;101629.09;;;12.95;100.00
69306;BME280;56427;51.580;4.656;2022-08-21T04:26:35;101631.91;;;13.03;100.00
69306;BME280;56427;51.580;4.656;2022-08-21T04:29:01;101638.19;;;13.00;100.00
69306;BME280;56427;51.580;4.656;2022-08-21T04:31:27;101634.75;;;13.00;100.00
69306;BME280;56427;51.580;4.656;2022-08-21T04:33:53;101632.63;;;12.94;100.00
69306;BME280;56427;51.580;4.656;2022-08-21T04:36:19;101644.84;;;12.93;100.00
69306;BME280;56427;51.580;4.656;2022-08-21T04:38:44;101652.91;;;12.90;100.00
69306;BME280;56427;51.580;4.656;2022-08-21T04:41:09;101648.75;;;12.87;100.00
69306;BME280;56427;51.580;4.656;2022-08-21T04:43:35;101658.00;;;12.92;100.00
69306;BME280;56427;51.580;4.656;2022-08-21T04:46:00;101657.97;;;13.03;100.00
69306;BME280;56427;51.580;4.656;2022-08-21T04:48:26;101655.72;;;12.98;100.00
69306;BME280;56427;51.580;4.656;2022-08-21T04:53:31;101651.13;;;12.91;100.00
69306;BME280;56427;51.580;4.656;2022-08-21T04:56:01;101653.16;;;12.87;100.00
69306;BME280;56427;51.580;4.656;2022-08-21T04:58:27;101652.88;;;13.01;100.00
69306;BME280;56427;51.580;4.656;2022-08-21T05:00:55;101662.00;;;12.96;100.00
69306;BME280;56427;51.580;4.656;2022-08-21T05:03:21;101660.25;;;13.17;100.00
69306;BME280;56427;51.580;4.656;2022-08-21T05:05:48;101671.34;;;13.63;100.00
69306;BME280;56427;51.580;4.656;2022-08-21T05:08:17;101659.28;;;13.93;100.00
69306;BME280;56427;51.580;4.656;2022-08-21T05:10:44;101663.78;;;14.12;100.00
69306;BME280;56427;51.580;4.656;2022-08-21T05:13:10;101662.72;;;14.55;100.00
69306;BME280;56427;51.580;4.656;2022-08-21T05:15:37;101664.97;;;14.60;100.00
69306;BME280;56427;51.580;4.656;2022-08-21T05:18:03;101662.56;;;14.97;100.00
69306;BME280;56427;51.580;4.656;2022-08-21T05:20:28;101662.41;;;14.99;100.00
69306;BME280;56427;51.580;4.656;2022-08-21T05:22:54;101652.66;;;15.11;100.00
69306;BME280;56427;51.580;4.656;2022-08-21T05:25:19;101669.41;;;15.47;100.00
69306;BME280;56427;51.580;4.656;2022-08-21T05:27:45;101665.59;;;16.08;100.00
69306;BME280;56427;51.580;4.656;2022-08-21T05:30:11;101674.63;;;15.67;100.00
69306;BME280;56427;51.580;4.656;2022-08-21T05:32:36;101678.00;;;16.06;100.00
69306;BME280;56427;51.580;4.656;2022-08-21T05:35:04;101668.84;;;15.82;100.00
69306;BME280;56427;51.580;4.656;2022-08-21T05:37:30;101669.97;;;16.17;100.00
69306;BME280;56427;51.580;4.656;2022-08-21T05:39:55;101669.78;;;16.56;99.99
69306;BME280;56427;51.580;4.656;2022-08-21T05:42:21;101683.34;;;16.98;100.00
69306;BME280;56427;51.580;4.656;2022-08-21T05:44:46;101678.66;;;16.73;97.45
69306;BME280;56427;51.580;4.656;2022-08-21T05:47:11;101678.94;;;17.16;97.38
69306;BME280;56427;51.580;4.656;2022-08-21T05:49:37;101679.38;;;16.93;96.03
69306;BME280;56427;51.580;4.656;2022-08-21T05:52:03;101675.03;;;16.56;98.45
69306;BME280;56427;51.580;4.656;2022-08-21T05:54:29;101682.91;;;17.02;97.10
69306;BME280;56427;51.580;4.656;2022-08-21T05:56:55;101676.72;;;17.47;95.50
69306;BME280;56427;51.580;4.656;2022-08-21T05:59:21;101672.66;;;17.53;94.62
69306;BME280;56427;51.580;4.656;2022-08-21T06:01:46;101665.44;;;17.29;95.33
69306;BME280;56427;51.580;4.656;2022-08-21T06:04:12;101669.22;;;17.53;96.47
69306;BME280;56427;51.580;4.656;2022-08-21T06:06:38;101672.53;;;17.81;92.43
69306;BME280;56427;51.580;4.656;2022-08-21T06:09:04;101665.69;;;17.62;94.94
69306;BME280;56427;51.580;4.656;2022-08-21T06:11:30;101676.72;;;17.92;93.21
69306;BME280;56427;51.580;4.656;2022-08-21T06:13:56;101678.78;;;18.41;93.17
69306;BME280;56427;51.580;4.656;2022-08-21T06:16:22;101678.81;;;18.49;90.97
69306;BME280;56427;51.580;4.656;2022-08-21T06:18:47;101682.53;;;18.89;89.53
69306;BME280;56427;51.580;4.656;2022-08-21T06:21:13;101681.34;;;18.75;89.24
69306;BME280;56427;51.580;4.656;2022-08-21T06:23:39;101680.09;;;19.12;88.81
69306;BME280;56427;51.580;4.656;2022-08-21T06:26:06;101671.41;;;19.28;88.48
69306;BME280;56427;51.580;4.656;2022-08-21T06:28:33;101676.63;;;18.95;88.96
69306;BME280;56427;51.580;4.656;2022-08-21T06:30:58;101675.16;;;19.34;88.82
69306;BME280;56427;51.580;4.656;2022-08-21T06:33:24;101669.25;;;19.23;89.49
69306;BME280;56427;51.580;4.656;2022-08-21T06:35:50;101676.66;;;19.20;88.97
69306;BME280;56427;51.580;4.656;2022-08-21T06:38:15;101680.13;;;20.17;87.61
69306;BME280;56427;51.580;4.656;2022-08-21T06:40:41;101673.75;;;20.51;83.60
69306;BME280;56427;51.580;4.656;2022-08-21T06:43:12;101674.47;;;19.89;84.56
69306;BME280;56427;51.580;4.656;2022-08-21T06:45:38;101672.03;;;19.46;89.25
69306;BME280;56427;51.580;4.656;2022-08-21T06:48:04;101668.97;;;20.47;83.98
69306;BME280;56427;51.580;4.656;2022-08-21T06:50:30;101674.31;;;19.91;85.49
69306;BME280;56427;51.580;4.656;2022-08-21T06:53:16;101674.03;;;20.88;83.51
69306;BME280;56427;51.580;4.656;2022-08-21T06:55:42;101683.03;;;21.40;81.33
69306;BME280;56427;51.580;4.656;2022-08-21T06:58:08;101677.94;;;21.15;81.27
69306;BME280;56427;51.580;4.656;2022-08-21T07:00:35;101689.22;;;21.32;80.82
69306;BME280;56427;51.580;4.656;2022-08-21T07:03:03;101684.81;;;21.47;81.11
69306;BME280;56427;51.580;4.656;2022-08-21T07:05:31;101680.31;;;22.01;77.48
69306;BME280;56427;51.580;4.656;2022-08-21T07:07:57;101674.94;;;21.79;78.43
69306;BME280;56427;51.580;4.656;2022-08-21T07:10:24;101672.00;;;21.74;79.65
69306;BME280;56427;51.580;4.656;2022-08-21T07:12:50;101672.84;;;21.75;79.89
69306;BME280;56427;51.580;4.656;2022-08-21T07:15:16;101674.97;;;21.56;79.77
69306;BME280;56427;51.580;4.656;2022-08-21T07:17:42;101670.09;;;21.07;82.21
69306;BME280;56427;51.580;4.656;2022-08-21T07:20:08;101678.56;;;22.08;79.13
69306;BME280;56427;51.580;4.656;2022-08-21T07:22:35;101678.28;;;21.58;79.52
69306;BME280;56427;51.580;4.656;2022-08-21T07:25:02;101678.53;;;21.48;80.76
69306;BME280;56427;51.580;4.656;2022-08-21T07:27:27;101679.28;;;21.57;80.65
69306;BME280;56427;51.580;4.656;2022-08-21T07:29:53;101673.63;;;21.22;80.42
69306;BME280;56427;51.580;4.656;2022-08-21T07:32:18;101676.56;;;21.04;82.63
69306;BME280;56427;51.580;4.656;2022-08-21T07:34:43;101670.84;;;21.39;81.33
69306;BME280;56427;51.580;4.656;2022-08-21T07:37:09;101677.41;;;22.11;78.12
69306;BME280;56427;51.580;4.656;2022-08-21T07:39:34;101678.13;;;21.90;79.88
69306;BME280;56427;51.580;4.656;2022-08-21T07:42:00;101674.81;;;21.58;81.47
69306;BME280;56427;51.580;4.656;2022-08-21T07:44:25;101683.50;;;21.96;79.14
69306;BME280;56427;51.580;4.656;2022-08-21T07:46:50;101686.13;;;22.26;76.52
69306;BME280;56427;51.580;4.656;2022-08-21T07:49:16;101687.28;;;21.26;81.36
69306;BME280;56427;51.580;4.656;2022-08-21T07:51:41;101685.31;;;22.11;78.45
69306;BME280;56427;51.580;4.656;2022-08-21T07:54:06;101679.19;;;22.25;77.57
69306;BME280;56427;51.580;4.656;2022-08-21T07:56:33;101682.00;;;22.23;77.70
69306;BME280;56427;51.580;4.656;2022-08-21T07:58:58;101674.81;;;22.47;76.62
69306;BME280;56427;51.580;4.656;2022-08-21T08:01:24;101676.94;;;22.37;77.05
69306;BME280;56427;51.580;4.656;2022-08-21T08:03:50;101674.06;;;22.38;76.88
69306;BME280;56427;51.580;4.656;2022-08-21T08:06:15;101669.53;;;22.17;77.19
69306;BME280;56427;51.580;4.656;2022-08-21T08:08:43;101675.97;;;22.81;77.03
69306;BME280;56427;51.580;4.656;2022-08-21T08:11:10;101676.44;;;23.06;75.05
69306;BME280;56427;51.580;4.656;2022-08-21T08:13:40;101678.50;;;22.89;76.03
69306;BME280;56427;51.580;4.656;2022-08-21T08:16:06;101674.53;;;23.22;73.85
69306;BME280;56427;51.580;4.656;2022-08-21T08:18:31;101675.72;;;23.41;72.94
69306;BME280;56427;51.580;4.656;2022-08-21T08:20:57;101684.88;;;23.73;71.81
69306;BME280;56427;51.580;4.656;2022-08-21T08:23:22;101674.81;;;23.83;72.59
69306;BME280;56427;51.580;4.656;2022-08-21T08:25:48;101671.50;;;23.25;73.94
69306;BME280;56427;51.580;4.656;2022-08-21T08:28:13;101669.97;;;23.37;72.32
69306;BME280;56427;51.580;4.656;2022-08-21T08:30:38;101661.72;;;23.04;73.48
69306;BME280;56427;51.580;4.656;2022-08-21T08:33:04;101667.44;;;23.50;71.82
69306;BME280;56427;51.580;4.656;2022-08-21T08:35:29;101667.09;;;22.89;74.35
69306;BME280;56427;51.580;4.656;2022-08-21T08:37:54;101660.13;;;23.24;74.27
69306;BME280;56427;51.580;4.656;2022-08-21T08:42:58;101663.03;;;23.08;73.38
69306;BME280;56427;51.580;4.656;2022-08-21T08:45:25;101653.97;;;23.80;71.60
69306;BME280;56427;51.580;4.656;2022-08-21T08:47:59;101655.97;;;23.43;72.59
69306;BME280;56427;51.580;4.656;2022-08-21T08:53:20;101658.56;;;24.00;70.72
69306;BME280;56427;51.580;4.656;2022-08-21T08:55:48;101655.63;;;23.25;72.83
69306;BME280;56427;51.580;4.656;2022-08-21T08:58:25;101649.00;;;23.14;71.83
69306;BME280;56427;51.580;4.656;2022-08-21T09:00:53;101652.59;;;23.56;70.73
69306;BME280;56427;51.580;4.656;2022-08-21T09:03:22;101649.50;;;24.29;70.03
69306;BME280;56427;51.580;4.656;2022-08-21T09:11:04;101651.50;;;23.79;68.93
69306;BME280;56427;51.580;4.656;2022-08-21T09:16:55;101652.41;;;24.48;65.06
69306;BME280;56427;51.580;4.656;2022-08-21T09:19:36;101644.06;;;23.61;69.23
69306;BME280;56427;51.580;4.656;2022-08-21T09:22:23;101657.59;;;22.94;71.55
69306;BME280;56427;51.580;4.656;2022-08-21T09:25:00;101651.50;;;22.57;71.70
69306;BME280;56427;51.580;4.656;2022-08-21T09:27:28;101657.53;;;22.00;74.00
69306;BME280;56427;51.580;4.656;2022-08-21T09:29:54;101648.63;;;22.52;70.42
69306;BME280;56427;51.580;4.656;2022-08-21T09:32:32;101648.47;;;22.24;71.79
69306;BME280;56427;51.580;4.656;2022-08-21T09:35:08;101655.50;;;22.02;74.18
69306;BME280;56427;51.580;4.656;2022-08-21T09:43:12;101659.19;;;22.52;71.50
69306;BME280;56427;51.580;4.656;2022-08-21T09:45:42;101650.69;;;22.35;72.36
69306;BME280;56427;51.580;4.656;2022-08-21T09:48:26;101650.03;;;22.91;71.08
69306;BME280;56427;51.580;4.656;2022-08-21T09:50:53;101654.47;;;22.69;70.17
69306;BME280;56427;51.580;4.656;2022-08-21T09:55:54;101644.38;;;23.44;66.51
69306;BME280;56427;51.580;4.656;2022-08-21T09:58:42;101645.59;;;23.20;67.22
69306;BME280;56427;51.580;4.656;2022-08-21T10:01:16;101645.28;;;22.44;70.42
69306;BME280;56427;51.580;4.656;2022-08-21T10:03:43;101648.28;;;22.40;69.57
69306;BME280;56427;51.580;4.656;2022-08-21T10:06:09;101651.38;;;22.44;68.34
69306;BME280;56427;51.580;4.656;2022-08-21T10:08:40;101654.59;;;22.10;68.76
69306;BME280;56427;51.580;4.656;2022-08-21T10:11:08;101649.31;;;21.95;69.04
69306;BME280;56427;51.580;4.656;2022-08-21T10:14:04;101651.16;;;22.09;70.49
69306;BME280;56427;51.580;4.656;2022-08-21T10:16:48;101653.47;;;22.49;69.12
69306;BME280;56427;51.580;4.656;2022-08-21T10:22:21;101657.50;;;22.30;67.30
69306;BME280;56427;51.580;4.656;2022-08-21T10:30:03;101656.56;;;23.74;61.89
69306;BME280;56427;51.580;4.656;2022-08-21T10:35:55;101643.44;;;23.94;60.78
69306;BME280;56427;51.580;4.656;2022-08-21T10:38:41;101643.34;;;24.15;59.88
69306;BME280;56427;51.580;4.656;2022-08-21T10:41:28;101637.53;;;24.53;59.00
69306;BME280;56427;51.580;4.656;2022-08-21T10:46:53;101630.22;;;24.62;56.71
69306;BME280;56427;51.580;4.656;2022-08-21T10:49:45;101633.91;;;24.74;55.89
69306;BME280;56427;51.580;4.656;2022-08-21T10:52:39;101634.31;;;24.65;55.59
69306;BME280;56427;51.580;4.656;2022-08-21T10:55:14;101637.28;;;23.86;56.30
69306;BME280;56427;51.580;4.656;2022-08-21T10:57:46;101639.41;;;24.04;56.04
69306;BME280;56427;51.580;4.656;2022-08-21T11:00:21;101640.50;;;24.23;54.52
69306;BME280;56427;51.580;4.656;2022-08-21T11:03:12;101634.81;;;24.33;54.86
69306;BME280;56427;51.580;4.656;2022-08-21T11:05:43;101638.75;;;23.61;56.40
69306;BME280;56427;51.580;4.656;2022-08-21T11:10:52;101646.59;;;24.17;54.78
69306;BME280;56427;51.580;4.656;2022-08-21T11:13:30;101636.72;;;23.98;55.15
69306;BME280;56427;51.580;4.656;2022-08-21T11:16:07;101641.50;;;24.22;54.61
69306;BME280;56427;51.580;4.656;2022-08-21T11:18:41;101636.78;;;23.76;56.89
69306;BME280;56427;51.580;4.656;2022-08-21T11:21:25;101642.56;;;23.23;58.05
69306;BME280;56427;51.580;4.656;2022-08-21T11:29:11;101630.25;;;24.89;54.72
69306;BME280;56427;51.580;4.656;2022-08-21T11:31:54;101639.91;;;25.95;53.63
69306;BME280;56427;51.580;4.656;2022-08-21T11:34:43;101635.16;;;25.39;52.35
69306;BME280;56427;51.580;4.656;2022-08-21T11:37:38;101637.22;;;25.30;52.58
69306;BME280;56427;51.580;4.656;2022-08-21T11:42:56;101640.63;;;25.57;50.41
69306;BME280;56427;51.580;4.656;2022-08-21T11:51:21;101640.75;;;26.02;51.17
69306;BME280;56427;51.580;4.656;2022-08-21T11:54:14;101643.22;;;25.77;48.70
69306;BME280;56427;51.580;4.656;2022-08-21T11:56:46;101633.72;;;25.49;49.85
69306;BME280;56427;51.580;4.656;2022-08-21T11:59:30;101643.22;;;25.97;49.51
69306;BME280;56427;51.580;4.656;2022-08-21T12:01:58;101645.19;;;25.37;50.40
69306;BME280;56427;51.580;4.656;2022-08-21T12:04:32;101641.44;;;26.23;47.47
69306;BME280;56427;51.580;4.656;2022-08-21T12:07:28;101633.94;;;26.52;47.95
69306;BME280;56427;51.580;4.656;2022-08-21T12:09:56;101634.16;;;26.05;47.76
69306;BME280;56427;51.580;4.656;2022-08-21T12:12:28;101637.16;;;25.57;49.19
69306;BME280;56427;51.580;4.656;2022-08-21T12:20:57;101638.00;;;25.44;50.41
69306;BME280;56427;51.580;4.656;2022-08-21T12:23:29;101637.63;;;24.18;52.63
69306;BME280;56427;51.580;4.656;2022-08-21T12:26:09;101640.44;;;25.52;50.96
69306;BME280;56427;51.580;4.656;2022-08-21T12:28:36;101640.03;;;24.68;50.75
69306;BME280;56427;51.580;4.656;2022-08-21T12:31:01;101640.47;;;23.75;53.09
69306;BME280;56427;51.580;4.656;2022-08-21T12:33:38;101639.81;;;23.38;54.55
69306;BME280;56427;51.580;4.656;2022-08-21T12:36:10;101644.84;;;23.26;54.37
69306;BME280;56427;51.580;4.656;2022-08-21T12:38:58;101637.66;;;24.25;52.33
69306;BME280;56427;51.580;4.656;2022-08-21T12:41:31;101645.94;;;24.70;53.21
69306;BME280;56427;51.580;4.656;2022-08-21T12:44:07;101647.13;;;23.64;54.30
69306;BME280;56427;51.580;4.656;2022-08-21T12:46:42;101649.59;;;23.66;55.45
69306;BME280;56427;51.580;4.656;2022-08-21T12:49:14;101648.78;;;24.62;53.61
69306;BME280;56427;51.580;4.656;2022-08-21T12:51:57;101645.03;;;24.36;53.39
69306;BME280;56427;51.580;4.656;2022-08-21T12:54:28;101643.72;;;24.12;54.46
69306;BME280;56427;51.580;4.656;2022-08-21T12:57:03;101644.13;;;24.16;54.42
69306;BME280;56427;51.580;4.656;2022-08-21T12:59:30;101648.34;;;23.90;55.48
69306;BME280;56427;51.580;4.656;2022-08-21T13:01:58;101647.94;;;23.93;55.40
69306;BME280;56427;51.580;4.656;2022-08-21T13:04:36;101647.72;;;23.60;55.38
69306;BME280;56427;51.580;4.656;2022-08-21T13:07:07;101645.81;;;23.53;55.23
69306;BME280;56427;51.580;4.656;2022-08-21T13:09:41;101649.47;;;23.18;56.24
69306;BME280;56427;51.580;4.656;2022-08-21T13:12:09;101644.50;;;23.36;56.96
69306;BME280;56427;51.580;4.656;2022-08-21T13:14:39;101642.50;;;24.83;54.59
69306;BME280;56427;51.580;4.656;2022-08-21T13:17:06;101640.25;;;24.80;53.32
69306;BME280;56427;51.580;4.656;2022-08-21T13:19:33;101648.41;;;24.72;53.18
69306;BME280;56427;51.580;4.656;2022-08-21T13:21:59;101654.13;;;25.62;51.40
69306;BME280;56427;51.580;4.656;2022-08-21T13:24:29;101650.16;;;25.92;50.54
69306;BME280;56427;51.580;4.656;2022-08-21T13:26:55;101650.69;;;25.42;50.91
69306;BME280;56427;51.580;4.656;2022-08-21T13:29:26;101647.81;;;24.08;55.26
69306;BME280;56427;51.580;4.656;2022-08-21T13:31:55;101646.31;;;23.99;54.64
69306;BME280;56427;51.580;4.656;2022-08-21T13:34:28;101637.22;;;23.45;55.77
69306;BME280;56427;51.580;4.656;2022-08-21T13:36:57;101637.88;;;24.30;54.71
69306;BME280;56427;51.580;4.656;2022-08-21T13:39:23;101646.19;;;23.44;54.88
69306;BME280;56427;51.580;4.656;2022-08-21T13:41:51;101643.41;;;23.87;52.54
69306;BME280;56427;51.580;4.656;2022-08-21T13:44:23;101647.81;;;23.80;51.63
69306;BME280;56427;51.580;4.656;2022-08-21T13:46:52;101651.50;;;23.79;51.59
69306;BME280;56427;51.580;4.656;2022-08-21T13:49:22;101639.50;;;23.20;53.38
69306;BME280;56427;51.580;4.656;2022-08-21T13:51:48;101643.38;;;23.24;53.76
69306;BME280;56427;51.580;4.656;2022-08-21T13:54:23;101632.06;;;23.37;53.95
69306;BME280;56427;51.580;4.656;2022-08-21T13:56:49;101640.34;;;23.05;55.10